METAR / TAF

METAR / TAF
Aktuelle Wetterdaten für Piloten (ohne Gewähr!)


Available data for LSZB from the past 2 hours
BERN/BELP
Metar
LSZB 311920Z AUTO 31002KT 6000 OVC018 09/09 Q1019

19:20 UTC

Wind: 310° 2kt

Visibility: 6000 m

Sky: OVC 1800 ft

Temp: 9 deg C / 48.2 deg F

Dewpoint: 9 deg C / 48.2 deg F

Pressure: 1019 hPa

TAF
TAF LSZB 311425Z 3115/3124 VRB03KT 7000 BKN012 BECMG 3117/3119 BKN008 PROB40 3118/3124 4000 BR

Available data for LSGS from the past 2 hours
SION (MIL/CIV/AU
Metar
LSGS 311920Z AUTO 25001KT 9999 NCD 11/11 Q1019

19:20 UTC

Wind: 250° 1kt

Visibility: 9999 m

Sky:

Temp: 11 deg C / 51.8 deg F

Dewpoint: 11 deg C / 51.8 deg F

Pressure: 1019 hPa

TAF
TAF LSGS 311425Z 3115/3124 25003KT 9999 FEW015 SCT025 BKN100

Available data for LSZG from the past 2 hours
GRENCHEN
Metar
LSZG 311920Z AUTO 08003KT 3900 BR OVC003 08/08 Q1019

19:20 UTC

Wind: 80° 3kt

Visibility: 3900 m

Sky: OVC 300 ft

Temp: 8 deg C / 46.4 deg F

Dewpoint: 8 deg C / 46.4 deg F

Pressure: 1019 hPa

TAF
TAF LSZG 311425Z 3115/3124 04005KT 8000 OVC011 TEMPO 3115/3124 -DZRA PROB40 3115/3124 OVC008

Available data for LSMP from the past 2 hours
PAYERNE (MIL/AUT
Metar
LSMP 311920Z AUTO 00000KT 9999NDV OVC014 10/08 Q1019 RMK

Available data for LSZA from the past 2 hours
LUGANO (PVT/AUT)
Metar
LSZA 311920Z VRB02KT 8000 BKN037 11/09 Q1020 NOSIG

19:20 UTC

Wind: ° 2kt

Visibility: 8000 m

Sky: BKN 3700 ft

Temp: 11 deg C / 51.8 deg F

Dewpoint: 9 deg C / 48.2 deg F

Pressure: 1020 hPa

TAF
TAF LSZA 311425Z 3115/3124 20006KT 8000 FEW015 OVC020 PROB30 3118/3124 4000 BR BKN012

Available data for LSZS from the past 2 hours
SAMEDAN
Metar
LSZS 311920Z AUTO VRB01KT 9999 OVC060 05/04 Q1019

19:20 UTC

Wind: ° 1kt

Visibility: 9999 m

Sky: OVC 6000 ft

Temp: 5 deg C / 41 deg F

Dewpoint: 4 deg C / 39.2 deg F

Pressure: 1019 hPa

TAF
TAF LSZS 311425Z 3115/3124 22006KT 9999 BKN050 TX08/3115Z PROB30 TEMPO 3115/3124 4000 BKN012